Time;durP1;ratioP1;P1;durP2;ratioP2;P2;SDS_P1;SDS_P2;PMS_P1;PMS_P2;Temp;Humidity;BMP_temperature;BMP_pressure;BME280_temperature;BME280_humidity;BME280_pressure;Samples;Min_cycle;Max_cycle;Signal;HPM_P1;HPM_P2
2021/05/16 00:00:55;;;;;;;0.70;0.70;;;9.80;99.90;;;;;;5050535;28;20451;-50
2021/05/16 00:03:22;;;;;;;1.27;0.70;;;9.80;99.90;;;;;;5051037;28;20448;-49
2021/05/16 00:05:49;;;;;;;0.97;0.87;;;9.70;99.90;;;;;;5050587;28;21118;-49
2021/05/16 00:08:16;;;;;;;1.20;0.70;;;9.60;99.90;;;;;;5045270;28;20852;-50
2021/05/16 00:10:43;;;;;;;0.80;0.77;;;9.60;99.90;;;;;;5050599;28;20479;-50
2021/05/16 00:13:11;;;;;;;0.87;0.60;;;9.70;99.90;;;;;;5050340;28;20447;-50
2021/05/16 00:15:38;;;;;;;0.80;0.80;;;9.60;99.90;;;;;;5050455;28;20455;-50
2021/05/16 00:18:05;;;;;;;2.37;0.90;;;9.50;99.90;;;;;;5050340;28;20464;-50
2021/05/16 00:20:33;;;;;;;1.07;0.87;;;9.60;99.90;;;;;;5050889;28;20945;-50
2021/05/16 00:23:00;;;;;;;0.73;0.70;;;9.60;99.90;;;;;;5050799;28;20452;-50
2021/05/16 00:25:27;;;;;;;1.30;0.90;;;9.70;99.90;;;;;;5050149;28;20829;-49
2021/05/16 00:27:55;;;;;;;0.80;0.80;;;9.70;99.90;;;;;;5050041;28;20483;-50
2021/05/16 00:30:25;;;;;;;0.90;0.60;;;9.60;99.90;;;;;;5050140;28;20506;-49
2021/05/16 00:32:52;;;;;;;0.77;0.57;;;9.60;99.90;;;;;;5050897;28;20461;-49
2021/05/16 00:35:21;;;;;;;1.17;0.70;;;9.70;99.90;;;;;;5050233;28;20444;-50
2021/05/16 00:37:47;;;;;;;0.60;0.50;;;9.70;99.90;;;;;;5050507;28;20483;-50
2021/05/16 00:40:15;;;;;;;1.10;0.60;;;9.60;99.90;;;;;;5053717;28;20444;-49
2021/05/16 00:42:42;;;;;;;1.03;0.70;;;9.60;99.90;;;;;;5054142;28;20455;-49
2021/05/16 00:45:11;;;;;;;0.90;0.60;;;9.60;99.90;;;;;;5053779;28;20458;-50
2021/05/16 00:47:38;;;;;;;0.90;0.80;;;9.60;99.90;;;;;;5053758;28;20463;-50
2021/05/16 00:50:09;;;;;;;0.97;0.87;;;9.60;99.90;;;;;;5053962;28;20475;-50
2021/05/16 00:52:39;;;;;;;0.90;0.80;;;9.60;99.90;;;;;;5049793;28;20448;-50
2021/05/16 00:55:07;;;;;;;0.70;0.70;;;9.60;99.90;;;;;;5053983;28;20447;-50
2021/05/16 00:57:34;;;;;;;4.63;2.90;;;9.80;99.90;;;;;;5054003;28;20862;-50
2021/05/16 01:00:01;;;;;;;18.50;10.87;;;9.80;99.90;;;;;;5054159;28;20859;-50
2021/05/16 01:02:27;;;;;;;15.47;9.47;;;9.70;99.90;;;;;;5053895;28;20475;-50
2021/05/16 01:04:54;;;;;;;10.77;6.57;;;9.70;99.90;;;;;;5053517;28;20448;-50
2021/05/16 01:07:21;;;;;;;6.13;3.50;;;9.60;99.90;;;;;;5053708;28;20506;-50
2021/05/16 01:09:48;;;;;;;4.03;2.10;;;9.80;99.90;;;;;;5053360;28;20533;-50
2021/05/16 01:12:15;;;;;;;1.70;1.40;;;9.70;99.90;;;;;;5053392;28;20458;-50
2021/05/16 01:14:44;;;;;;;1.37;0.93;;;9.60;99.90;;;;;;5053300;28;20447;-50
2021/05/16 01:17:11;;;;;;;1.20;1.03;;;9.70;99.90;;;;;;5053432;28;20456;-50
2021/05/16 01:19:39;;;;;;;5.43;1.10;;;9.50;99.90;;;;;;5052623;28;20439;-50
2021/05/16 01:22:08;;;;;;;1.10;0.73;;;9.60;99.90;;;;;;5053372;28;20885;-50
2021/05/16 01:24:42;;;;;;;1.70;1.20;;;9.70;99.90;;;;;;5053413;28;20455;-50
2021/05/16 01:27:13;;;;;;;0.90;0.90;;;9.60;99.90;;;;;;5053138;28;20477;-50
2021/05/16 01:29:42;;;;;;;1.20;1.10;;;9.40;99.90;;;;;;5053297;28;20477;-49
2021/05/16 01:32:11;;;;;;;1.33;1.10;;;9.50;99.90;;;;;;5053046;28;20451;-49
2021/05/16 01:34:42;;;;;;;2.10;1.10;;;9.40;99.90;;;;;;5052068;28;20452;-49
2021/05/16 01:37:10;;;;;;;1.93;1.30;;;9.50;99.90;;;;;;5052953;28;20458;-50
2021/05/16 01:39:38;;;;;;;1.90;1.10;;;9.30;99.90;;;;;;5053020;28;20443;-49
2021/05/16 01:42:05;;;;;;;0.77;0.77;;;9.40;99.90;;;;;;5053338;28;20505;-50
2021/05/16 01:44:32;;;;;;;1.40;0.90;;;9.20;99.90;;;;;;5052498;28;20455;-50
2021/05/16 01:47:01;;;;;;;3.20;0.80;;;9.10;99.90;;;;;;5052918;28;20462;-49
2021/05/16 01:49:28;;;;;;;1.07;0.80;;;9.20;99.90;;;;;;5051147;28;20462;-50
2021/05/16 01:51:54;;;;;;;1.03;0.80;;;9.10;99.90;;;;;;5053360;28;20845;-50
2021/05/16 01:54:22;;;;;;;0.70;0.70;;;9.20;99.90;;;;;;5052616;28;20451;-49
2021/05/16 01:56:49;;;;;;;0.93;0.70;;;9.40;99.90;;;;;;5053002;28;20505;-49
2021/05/16 01:59:16;;;;;;;0.70;0.70;;;9.40;99.90;;;;;;5052115;28;20853;-50
2021/05/16 02:01:43;;;;;;;0.87;0.70;;;9.30;99.90;;;;;;5052819;28;20447;-50
2021/05/16 02:04:10;;;;;;;0.80;0.77;;;9.30;99.90;;;;;;5052773;28;20456;-50
2021/05/16 02:06:39;;;;;;;1.13;1.00;;;9.30;99.90;;;;;;5052609;28;20964;-50
2021/05/16 02:09:06;;;;;;;0.80;0.70;;;9.20;99.90;;;;;;5052417;28;20467;-49
2021/05/16 02:11:34;;;;;;;1.97;1.00;;;9.20;99.90;;;;;;5052662;28;20479;-50
2021/05/16 02:14:00;;;;;;;1.07;0.70;;;9.20;99.90;;;;;;5052422;28;20855;-49
2021/05/16 02:16:27;;;;;;;0.80;0.80;;;9.30;99.90;;;;;;5052581;28;20951;-50
2021/05/16 02:18:54;;;;;;;1.37;0.77;;;9.30;99.90;;;;;;5051951;28;20471;-49
2021/05/16 02:21:20;;;;;;;1.07;0.83;;;9.50;99.90;;;;;;5052791;28;20455;-50
2021/05/16 02:23:47;;;;;;;1.60;0.87;;;9.40;99.90;;;;;;5052598;28;20463;-50
2021/05/16 02:26:13;;;;;;;1.10;0.80;;;9.40;99.90;;;;;;5051843;28;20456;-49
2021/05/16 02:28:41;;;;;;;0.70;0.70;;;9.50;99.90;;;;;;5051870;28;20502;-49
2021/05/16 02:31:14;;;;;;;0.83;0.80;;;9.60;99.90;;;;;;5052388;28;20483;-50
2021/05/16 02:33:40;;;;;;;1.37;0.80;;;9.70;99.90;;;;;;5052073;28;20443;-50
2021/05/16 02:36:07;;;;;;;2.13;0.70;;;9.70;99.90;;;;;;5051757;28;20501;-49
2021/05/16 02:38:34;;;;;;;0.70;0.70;;;9.60;99.90;;;;;;5052229;28;20852;-50
2021/05/16 02:41:00;;;;;;;2.60;0.80;;;9.70;99.90;;;;;;5051976;28;20895;-50
2021/05/16 02:43:27;;;;;;;0.83;0.70;;;9.70;99.90;;;;;;5052040;28;20839;-50
2021/05/16 02:45:54;;;;;;;0.70;0.67;;;9.60;99.90;;;;;;5051731;28;20451;-50
2021/05/16 02:48:20;;;;;;;0.70;0.63;;;9.50;99.90;;;;;;5051264;28;20996;-50
2021/05/16 02:50:47;;;;;;;0.80;0.60;;;9.70;99.90;;;;;;5051909;28;20483;-50
2021/05/16 02:53:14;;;;;;;0.70;0.70;;;9.70;99.90;;;;;;5051805;28;20447;-50
2021/05/16 02:55:41;;;;;;;0.97;0.70;;;9.60;99.90;;;;;;5051282;28;20622;-50
2021/05/16 02:58:07;;;;;;;0.70;0.67;;;9.50;99.90;;;;;;5052031;28;20532;-50
2021/05/16 03:00:34;;;;;;;0.80;0.63;;;9.40;99.90;;;;;;5051156;28;20444;-50
2021/05/16 03:03:01;;;;;;;1.10;0.63;;;9.30;99.90;;;;;;5051901;28;20453;-49
2021/05/16 03:05:29;;;;;;;0.80;0.70;;;9.20;99.90;;;;;;5051373;28;20952;-50
2021/05/16 03:07:56;;;;;;;1.30;0.83;;;9.20;99.90;;;;;;5051296;28;20475;-49
2021/05/16 03:10:23;;;;;;;1.70;0.70;;;9.20;99.90;;;;;;5051601;28;20479;-49
2021/05/16 03:12:49;;;;;;;1.00;1.00;;;9.20;99.90;;;;;;5051904;28;20458;-49
2021/05/16 03:15:16;;;;;;;1.27;1.17;;;9.20;99.90;;;;;;5050421;28;20458;-49
2021/05/16 03:17:43;;;;;;;1.30;1.20;;;9.20;99.90;;;;;;5051615;28;20467;-50
2021/05/16 03:20:12;;;;;;;1.07;1.00;;;9.20;99.90;;;;;;5051716;28;20517;-50
2021/05/16 03:22:39;;;;;;;1.50;1.07;;;9.10;99.90;;;;;;5051902;28;20455;-49
2021/05/16 03:25:07;;;;;;;1.40;1.30;;;9.10;99.90;;;;;;5051284;28;20456;-49
2021/05/16 03:27:34;;;;;;;1.40;1.30;;;9.10;99.90;;;;;;5075858;22;20482;-54
2021/05/16 03:30:01;;;;;;;1.10;1.00;;;9.00;99.90;;;;;;5070928;28;20486;-53
2021/05/16 03:32:27;;;;;;;0.90;0.90;;;8.70;99.90;;;;;;5071881;28;20482;-53
2021/05/16 03:34:54;;;;;;;0.80;0.80;;;8.70;99.90;;;;;;5071120;28;20454;-53
2021/05/16 03:37:21;;;;;;;1.13;0.70;;;8.70;99.90;;;;;;5071493;28;20450;-54
2021/05/16 03:39:47;;;;;;;1.73;0.77;;;8.70;99.90;;;;;;5071061;28;20446;-53
2021/05/16 03:42:14;;;;;;;0.90;0.90;;;8.60;99.90;;;;;;5071428;28;20957;-53
2021/05/16 03:44:41;;;;;;;0.80;0.70;;;8.60;99.90;;;;;;5072054;28;20457;-54
2021/05/16 03:47:07;;;;;;;0.70;0.70;;;8.50;99.90;;;;;;5071956;28;20454;-53
2021/05/16 03:49:33;;;;;;;1.20;0.80;;;8.70;99.90;;;;;;5070955;28;20474;-55
2021/05/16 03:52:00;;;;;;;1.13;1.03;;;8.70;99.90;;;;;;5071573;28;20447;-53
2021/05/16 03:54:27;;;;;;;1.33;1.17;;;8.80;99.90;;;;;;5071862;28;20945;-53
2021/05/16 03:56:54;;;;;;;0.93;0.90;;;8.70;99.90;;;;;;5071867;28;20971;-54
2021/05/16 03:59:20;;;;;;;0.80;0.80;;;8.80;99.90;;;;;;5071168;28;20474;-53
2021/05/16 04:01:47;;;;;;;1.03;0.93;;;8.90;99.90;;;;;;5071336;28;20445;-53
2021/05/16 04:04:13;;;;;;;0.77;0.70;;;8.80;99.90;;;;;;5070831;28;20966;-53
2021/05/16 04:06:40;;;;;;;0.97;0.87;;;8.80;99.90;;;;;;5051184;28;20452;-53
2021/05/16 04:09:06;;;;;;;1.30;1.20;;;8.90;99.90;;;;;;5058698;28;20477;-53
2021/05/16 04:11:34;;;;;;;1.13;1.03;;;8.80;99.90;;;;;;5071297;28;20832;-53
2021/05/16 04:14:00;;;;;;;1.13;1.00;;;8.70;99.90;;;;;;5074104;28;20442;-53
2021/05/16 04:16:27;;;;;;;1.43;0.80;;;8.90;99.90;;;;;;5074757;28;20966;-54
2021/05/16 04:18:53;;;;;;;0.80;0.80;;;9.00;99.90;;;;;;5074768;28;20516;-53
2021/05/16 04:21:20;;;;;;;1.00;0.90;;;9.10;99.90;;;;;;5074974;28;20443;-56
2021/05/16 04:23:47;;;;;;;0.77;0.70;;;9.20;99.90;;;;;;5074859;28;20451;-53
2021/05/16 04:26:13;;;;;;;0.90;0.90;;;9.10;99.90;;;;;;5074895;28;20447;-53
2021/05/16 04:28:41;;;;;;;1.20;1.10;;;9.10;99.90;;;;;;5074173;28;20482;-53
2021/05/16 04:31:07;;;;;;;0.93;0.93;;;9.00;99.90;;;;;;5074700;28;20488;-54
2021/05/16 04:33:34;;;;;;;0.77;0.70;;;9.10;99.90;;;;;;5074918;28;20454;-53
2021/05/16 04:36:00;;;;;;;0.70;0.60;;;9.10;99.90;;;;;;5074651;28;20512;-54
2021/05/16 04:38:27;;;;;;;1.80;0.90;;;9.20;99.90;;;;;;5074671;28;20466;-54
2021/05/16 04:40:53;;;;;;;1.00;0.90;;;9.20;99.90;;;;;;5074402;28;20443;-53
2021/05/16 04:43:20;;;;;;;1.20;1.10;;;9.20;99.90;;;;;;5074279;28;20458;-53
2021/05/16 04:45:47;;;;;;;1.23;0.90;;;9.10;99.90;;;;;;5074397;28;20454;-53
2021/05/16 04:48:14;;;;;;;1.70;1.00;;;9.20;99.90;;;;;;5074455;28;20474;-53
2021/05/16 04:50:40;;;;;;;1.57;0.90;;;9.50;99.90;;;;;;5073896;28;20898;-53
2021/05/16 04:53:07;;;;;;;0.70;0.70;;;9.90;99.90;;;;;;5074727;28;20508;-54
2021/05/16 04:55:33;;;;;;;0.70;0.70;;;11.00;99.90;;;;;;5074237;28;20454;-53
2021/05/16 04:58:00;;;;;;;1.03;0.80;;;12.00;99.90;;;;;;5074160;28;20470;-54
2021/05/16 05:00:26;;;;;;;3.07;0.90;;;12.80;99.90;;;;;;5074221;28;20500;-53
2021/05/16 05:02:54;;;;;;;1.53;0.90;;;13.50;99.90;;;;;;5073536;28;20451;-54
2021/05/16 05:05:21;;;;;;;2.30;1.00;;;14.10;99.90;;;;;;5073083;28;20454;-53
2021/05/16 05:07:47;;;;;;;1.63;0.93;;;14.10;99.90;;;;;;5074229;28;20890;-53
2021/05/16 05:10:14;;;;;;;1.00;0.90;;;14.40;99.90;;;;;;5073668;28;20479;-53
2021/05/16 05:12:40;;;;;;;0.60;0.60;;;14.80;99.90;;;;;;5073868;28;20446;-52
2021/05/16 05:15:08;;;;;;;0.63;0.60;;;14.90;99.90;;;;;;5073188;28;20443;-54
2021/05/16 05:17:39;;;;;;;0.80;0.80;;;14.60;99.90;;;;;;5074325;28;20477;-54
2021/05/16 05:20:08;;;;;;;0.60;0.60;;;14.80;99.90;;;;;;5073900;28;20443;-53
2021/05/16 05:22:34;;;;;;;0.60;0.60;;;14.80;99.90;;;;;;5073772;28;20454;-54
2021/05/16 05:25:01;;;;;;;1.90;0.80;;;14.90;99.90;;;;;;5073633;28;20447;-54
2021/05/16 05:27:27;;;;;;;1.23;0.70;;;15.60;99.90;;;;;;5073715;28;20454;-54
2021/05/16 05:29:54;;;;;;;1.10;0.60;;;16.20;99.90;;;;;;5073326;28;20995;-55
2021/05/16 05:32:20;;;;;;;0.70;0.70;;;16.70;99.90;;;;;;5073366;28;20450;-54
2021/05/16 05:34:47;;;;;;;2.20;0.60;;;16.30;99.90;;;;;;5073190;28;21029;-53
2021/05/16 05:37:14;;;;;;;1.50;0.73;;;16.30;99.90;;;;;;5073928;28;20457;-54
2021/05/16 05:39:42;;;;;;;2.77;0.60;;;16.30;99.90;;;;;;5073433;28;20462;-54
2021/05/16 05:42:08;;;;;;;1.10;0.60;;;16.40;99.90;;;;;;5073014;28;20449;-54
2021/05/16 05:44:37;;;;;;;0.80;0.60;;;17.20;99.90;;;;;;5073447;28;20447;-53
2021/05/16 05:47:04;;;;;;;0.70;0.70;;;18.00;99.90;;;;;;5073232;28;20455;-55
2021/05/16 05:49:30;;;;;;;2.03;0.70;;;18.20;99.90;;;;;;5073492;28;20467;-56
2021/05/16 05:51:59;;;;;;;0.77;0.77;;;18.70;99.90;;;;;;5072960;28;20490;-56
2021/05/16 05:54:27;;;;;;;1.17;0.60;;;19.20;99.90;;;;;;5073086;28;20447;-55
2021/05/16 05:56:54;;;;;;;0.97;0.60;;;18.80;99.90;;;;;;5073022;28;20500;-55
2021/05/16 05:59:21;;;;;;;0.87;0.80;;;19.00;99.90;;;;;;5073255;28;20546;-56
2021/05/16 06:01:47;;;;;;;0.90;0.73;;;19.30;99.90;;;;;;5073103;28;20458;-55
2021/05/16 06:04:14;;;;;;;0.80;0.80;;;19.40;99.90;;;;;;5073131;28;20862;-55
2021/05/16 06:06:41;;;;;;;0.70;0.63;;;19.50;99.90;;;;;;5073071;28;20447;-56
2021/05/16 06:09:07;;;;;;;0.93;0.70;;;19.70;99.90;;;;;;5072959;28;20466;-56
2021/05/16 06:11:36;;;;;;;0.67;0.50;;;19.40;99.90;;;;;;5072331;28;20568;-56
2021/05/16 06:14:03;;;;;;;0.80;0.70;;;19.80;99.90;;;;;;5072876;28;20873;-56
2021/05/16 06:16:30;;;;;;;1.00;0.90;;;18.70;99.90;;;;;;5072160;28;20446;-55
2021/05/16 06:18:57;;;;;;;3.17;0.70;;;18.30;99.90;;;;;;5072426;28;20516;-55
2021/05/16 06:21:24;;;;;;;1.00;0.80;;;18.80;99.90;;;;;;5071804;28;21027;-56
2021/05/16 06:24:01;;;;;;;0.77;0.60;;;19.50;99.90;;;;;;5072014;28;20944;-56
2021/05/16 06:26:29;;;;;;;0.80;0.70;;;20.00;99.90;;;;;;5072241;28;20516;-55
2021/05/16 06:28:56;;;;;;;0.63;0.57;;;20.20;99.90;;;;;;5072008;28;20479;-56
2021/05/16 06:31:23;;;;;;;1.10;0.80;;;20.90;99.90;;;;;;5070721;28;20479;-56
2021/05/16 06:33:50;;;;;;;3.67;0.80;;;20.70;99.90;;;;;;5072005;28;20450;-56
2021/05/16 06:36:17;;;;;;;0.70;0.60;;;20.80;99.90;;;;;;5071378;28;20451;-56
2021/05/16 06:38:43;;;;;;;0.70;0.60;;;20.80;99.90;;;;;;5072185;28;21242;-56
2021/05/16 06:41:10;;;;;;;0.90;0.60;;;20.50;99.90;;;;;;5072295;28;20822;-56
2021/05/16 06:43:36;;;;;;;0.60;0.60;;;19.70;99.90;;;;;;5072260;28;20454;-55
2021/05/16 06:46:03;;;;;;;0.60;0.60;;;19.00;99.90;;;;;;5072448;28;20443;-55
2021/05/16 06:48:30;;;;;;;2.00;0.60;;;17.80;99.90;;;;;;5072964;28;20470;-55
2021/05/16 06:50:56;;;;;;;0.87;0.60;;;17.60;99.90;;;;;;5072159;28;20858;-55
2021/05/16 06:53:23;;;;;;;0.70;0.60;;;17.50;99.90;;;;;;5072681;28;20836;-55
2021/05/16 06:55:49;;;;;;;0.70;0.60;;;17.00;99.90;;;;;;5075993;28;20451;-55
2021/05/16 06:58:16;;;;;;;0.83;0.70;;;16.50;99.90;;;;;;5075889;28;20569;-54
2021/05/16 07:00:42;;;;;;;1.00;0.87;;;16.10;99.90;;;;;;5076426;28;20446;-55
2021/05/16 07:03:10;;;;;;;0.80;0.80;;;16.10;99.90;;;;;;5074454;28;20451;-55
2021/05/16 07:05:36;;;;;;;1.00;0.80;;;15.70;99.90;;;;;;5073826;28;20948;-55
2021/05/16 07:08:03;;;;;;;0.70;0.70;;;15.70;99.90;;;;;;5074481;28;20509;-55
2021/05/16 07:10:29;;;;;;;0.80;0.80;;;15.80;99.90;;;;;;5073600;28;20999;-54
2021/05/16 07:12:57;;;;;;;1.30;1.20;;;15.70;99.90;;;;;;5074767;28;20442;-55
2021/05/16 07:15:24;;;;;;;1.37;0.90;;;15.80;99.90;;;;;;5074565;28;20456;-54
2021/05/16 07:17:50;;;;;;;0.90;0.80;;;15.60;99.90;;;;;;5072406;28;20474;-55
2021/05/16 07:20:18;;;;;;;0.80;0.70;;;16.00;99.90;;;;;;5071929;28;20508;-55
2021/05/16 07:22:44;;;;;;;0.70;0.50;;;16.10;99.90;;;;;;5051868;28;20463;-55
2021/05/16 07:25:12;;;;;;;1.10;0.60;;;16.20;99.90;;;;;;5055843;28;20438;-55
2021/05/16 07:27:39;;;;;;;1.60;0.70;;;16.30;99.90;;;;;;5071397;28;20216;-55
2021/05/16 07:30:07;;;;;;;1.07;0.80;;;15.60;99.90;;;;;;5071114;28;20475;-55
2021/05/16 07:32:34;;;;;;;0.60;0.60;;;15.50;99.90;;;;;;5071072;28;20443;-55
2021/05/16 07:35:00;;;;;;;0.93;0.63;;;15.30;99.90;;;;;;5070954;28;21069;-55
2021/05/16 07:37:28;;;;;;;1.37;0.70;;;15.30;99.90;;;;;;5070712;28;20520;-55
2021/05/16 07:39:55;;;;;;;0.70;0.57;;;15.00;99.90;;;;;;5070850;28;20447;-55
2021/05/16 07:42:22;;;;;;;1.50;0.70;;;14.70;99.90;;;;;;5070846;28;20458;-55
2021/05/16 07:44:48;;;;;;;0.80;0.80;;;14.80;99.90;;;;;;5070729;28;20447;-55
2021/05/16 07:47:15;;;;;;;0.73;0.70;;;14.70;99.90;;;;;;5072636;28;20447;-55
2021/05/16 07:49:41;;;;;;;0.83;0.70;;;14.80;99.90;;;;;;5075387;28;20463;-55
2021/05/16 07:52:08;;;;;;;1.00;0.70;;;14.70;99.90;;;;;;5075538;28;20886;-55
2021/05/16 07:54:35;;;;;;;0.70;0.63;;;14.60;99.90;;;;;;5075479;28;20446;-54
2021/05/16 07:57:01;;;;;;;1.57;0.70;;;14.70;99.90;;;;;;5075163;28;20964;-55
2021/05/16 07:59:28;;;;;;;0.60;0.50;;;14.70;99.90;;;;;;5075111;28;20498;-55
2021/05/16 08:01:54;;;;;;;1.20;0.80;;;14.70;99.90;;;;;;5075006;28;20447;-55
2021/05/16 08:04:21;;;;;;;1.00;0.70;;;14.60;99.90;;;;;;5075516;28;20477;-55
2021/05/16 08:06:47;;;;;;;1.00;0.90;;;14.40;99.90;;;;;;5075237;28;20504;-55
2021/05/16 08:09:14;;;;;;;0.80;0.80;;;14.30;99.90;;;;;;5074700;28;20474;-55
2021/05/16 08:11:41;;;;;;;1.77;0.80;;;14.50;99.90;;;;;;5074846;28;20486;-55
2021/05/16 08:14:08;;;;;;;1.40;1.07;;;14.50;99.90;;;;;;5074964;28;20443;-55
2021/05/16 08:16:34;;;;;;;1.00;0.70;;;14.60;99.90;;;;;;5074861;28;20461;-54
2021/05/16 08:19:01;;;;;;;0.70;0.53;;;14.60;99.90;;;;;;5074855;28;20467;-54
2021/05/16 08:21:27;;;;;;;1.00;0.60;;;14.90;99.90;;;;;;5074798;28;20996;-55
2021/05/16 08:23:54;;;;;;;1.57;0.70;;;14.60;99.90;;;;;;5074990;28;20473;-56
2021/05/16 08:26:20;;;;;;;0.90;0.60;;;14.70;99.90;;;;;;5074651;28;20455;-55
2021/05/16 08:28:48;;;;;;;0.90;0.60;;;14.80;99.90;;;;;;5074785;28;20532;-55
2021/05/16 08:31:14;;;;;;;1.73;0.70;;;14.70;99.90;;;;;;5074263;28;20478;-56
2021/05/16 08:33:41;;;;;;;0.90;0.70;;;14.80;99.90;;;;;;5074877;28;20454;-55
2021/05/16 08:36:07;;;;;;;1.57;1.10;;;14.90;99.90;;;;;;5074602;28;20466;-55
2021/05/16 08:38:34;;;;;;;2.10;0.77;;;14.70;99.90;;;;;;5074064;28;20520;-55
2021/05/16 08:41:01;;;;;;;1.00;1.00;;;14.40;99.90;;;;;;5074424;28;20442;-56
2021/05/16 08:43:28;;;;;;;1.30;1.10;;;14.60;99.90;;;;;;5074470;28;20453;-55
2021/05/16 08:45:55;;;;;;;1.63;1.23;;;14.80;99.90;;;;;;5074086;28;20446;-55
2021/05/16 08:48:22;;;;;;;1.47;1.00;;;15.00;99.90;;;;;;5074314;28;20469;-54
2021/05/16 08:50:49;;;;;;;1.00;1.00;;;15.20;99.90;;;;;;5074459;28;20486;-55
2021/05/16 08:53:15;;;;;;;2.20;1.10;;;15.30;99.90;;;;;;5074298;28;20454;-55
2021/05/16 08:55:42;;;;;;;1.53;1.30;;;15.20;99.90;;;;;;5074043;28;20454;-55
2021/05/16 08:58:08;;;;;;;1.30;1.00;;;15.40;99.90;;;;;;5073576;28;20474;-55
2021/05/16 09:00:43;;;;;;;1.00;0.90;;;15.70;99.90;;;;;;5074074;28;20584;-55
2021/05/16 09:03:12;;;;;;;1.00;0.90;;;16.00;99.90;;;;;;5074063;28;20477;-55
2021/05/16 09:05:40;;;;;;;1.77;0.97;;;16.40;99.90;;;;;;5073898;28;20447;-55
2021/05/16 09:08:11;;;;;;;1.13;1.03;;;16.60;99.90;;;;;;5073411;28;20855;-56
2021/05/16 09:10:38;;;;;;;0.70;0.70;;;16.80;99.90;;;;;;5073144;28;20493;-56
2021/05/16 09:13:14;;;;;;;1.57;0.90;;;16.90;99.90;;;;;;5073922;28;20476;-56
2021/05/16 09:15:40;;;;;;;1.20;1.07;;;16.90;99.90;;;;;;5073943;28;20545;-56
2021/05/16 09:18:07;;;;;;;1.30;0.90;;;17.00;99.90;;;;;;5073908;28;20470;-55
2021/05/16 09:20:34;;;;;;;1.37;0.80;;;17.30;99.90;;;;;;5073229;28;20501;-55
2021/05/16 09:23:01;;;;;;;1.67;1.10;;;17.20;99.90;;;;;;5073490;28;20813;-55
2021/05/16 09:25:31;;;;;;;1.33;0.93;;;17.40;99.90;;;;;;5072592;28;20515;-56
2021/05/16 09:28:11;;;;;;;2.00;1.03;;;17.90;99.90;;;;;;5068811;28;20930;-55
2021/05/16 09:30:39;;;;;;;1.10;0.90;;;17.90;99.90;;;;;;5069766;28;20482;-55
2021/05/16 09:33:07;;;;;;;1.90;0.97;;;18.00;99.90;;;;;;5073450;28;20928;-56
2021/05/16 09:35:40;;;;;;;1.43;1.33;;;18.20;99.90;;;;;;5073130;28;20478;-55
2021/05/16 09:38:10;;;;;;;1.63;1.40;;;18.50;99.90;;;;;;5073727;28;20471;-55
2021/05/16 09:40:41;;;;;;;0.70;0.70;;;18.80;99.90;;;;;;5073380;28;20447;-55
2021/05/16 09:43:10;;;;;;;0.90;0.60;;;18.90;99.90;;;;;;5073294;28;20454;-55
2021/05/16 09:45:44;;;;;;;2.83;0.90;;;19.10;99.90;;;;;;5073066;28;20477;-55
2021/05/16 09:48:36;;;;;;;1.73;0.70;;;19.10;99.90;;;;;;5073106;28;21006;-55
2021/05/16 09:51:27;;;;;;;1.20;0.90;;;18.80;99.90;;;;;;5056041;28;20477;-56
2021/05/16 09:53:56;;;;;;;1.30;0.80;;;18.90;99.90;;;;;;5064159;28;20452;-55
2021/05/16 09:56:27;;;;;;;1.80;0.80;;;18.50;99.90;;;;;;5065546;28;20650;-54
2021/05/16 09:58:55;;;;;;;0.97;0.87;;;18.70;99.90;;;;;;5071862;28;20837;-56
2021/05/16 10:01:23;;;;;;;1.63;0.70;;;18.70;99.90;;;;;;5072137;28;20450;-55
2021/05/16 10:03:50;;;;;;;0.80;0.67;;;18.90;99.90;;;;;;5071508;28;20443;-55
2021/05/16 10:06:17;;;;;;;1.17;0.70;;;18.70;99.90;;;;;;5072400;28;20443;-55
2021/05/16 10:08:47;;;;;;;2.27;1.03;;;18.70;99.90;;;;;;5072372;28;20467;-55
2021/05/16 10:11:16;;;;;;;0.97;0.80;;;18.60;99.90;;;;;;5070741;28;20548;-55
2021/05/16 10:13:48;;;;;;;1.50;0.90;;;18.90;99.90;;;;;;5070125;28;20935;-56
2021/05/16 10:16:18;;;;;;;1.30;0.73;;;18.90;99.90;;;;;;5072552;28;20215;-55
2021/05/16 10:18:47;;;;;;;1.27;0.80;;;19.00;99.90;;;;;;5071761;28;21012;-56
2021/05/16 10:21:14;;;;;;;0.70;0.70;;;19.00;99.90;;;;;;5071775;28;20456;-55
2021/05/16 10:23:42;;;;;;;1.13;1.03;;;18.70;99.90;;;;;;5072413;28;20451;-56
2021/05/16 10:26:20;;;;;;;1.60;1.00;;;18.70;99.90;;;;;;5072167;28;21029;-55
2021/05/16 10:29:04;;;;;;;2.67;0.90;;;18.60;99.90;;;;;;5072036;28;20544;-56
2021/05/16 10:31:50;;;;;;;2.60;1.00;;;18.50;99.90;;;;;;5060811;28;20485;-55
2021/05/16 10:34:42;;;;;;;1.93;0.90;;;18.50;99.90;;;;;;5071945;28;20441;-55
2021/05/16 10:37:40;;;;;;;3.57;3.23;;;18.10;99.90;;;;;;5072224;28;20551;-55
2021/05/16 10:40:22;;;;;;;1.20;1.10;;;18.20;99.90;;;;;;5071728;28;20451;-55
2021/05/16 10:42:50;;;;;;;1.33;0.87;;;18.40;99.90;;;;;;5071713;28;20537;-55
2021/05/16 10:45:18;;;;;;;2.80;0.90;;;18.50;99.90;;;;;;5071434;28;20462;-54
2021/05/16 10:48:13;;;;;;;0.63;0.60;;;18.30;99.90;;;;;;5071843;28;20474;-55
2021/05/16 10:50:49;;;;;;;3.03;0.70;;;18.20;99.90;;;;;;5067984;28;20544;-56
2021/05/16 10:53:22;;;;;;;1.83;0.80;;;17.60;99.90;;;;;;5071693;28;20468;-55
2021/05/16 10:55:51;;;;;;;0.80;0.70;;;17.50;99.90;;;;;;5070581;28;20581;-55
2021/05/16 10:58:38;;;;;;;2.67;0.90;;;17.30;99.90;;;;;;5071566;28;20516;-55
2021/05/16 11:01:05;;;;;;;1.00;0.70;;;17.20;99.90;;;;;;5072230;28;20434;-55
2021/05/16 11:03:46;;;;;;;1.07;0.80;;;17.30;99.90;;;;;;5071980;28;20945;-56
2021/05/16 11:06:13;;;;;;;1.57;1.00;;;17.30;99.90;;;;;;5071080;28;20466;-56
2021/05/16 11:09:09;;;;;;;0.90;0.70;;;17.60;99.90;;;;;;5072024;28;20493;-56
2021/05/16 11:11:54;;;;;;;4.30;0.77;;;17.80;99.90;;;;;;5071665;28;20506;-56
2021/05/16 11:14:23;;;;;;;1.67;0.80;;;17.80;99.90;;;;;;5071246;28;20451;-55
2021/05/16 11:16:53;;;;;;;0.80;0.60;;;18.00;99.90;;;;;;5071332;28;20447;-55
2021/05/16 11:19:25;;;;;;;0.60;0.50;;;17.90;99.90;;;;;;5062862;28;20472;-55
2021/05/16 11:21:52;;;;;;;1.80;0.80;;;17.70;99.90;;;;;;5066223;28;20446;-56
2021/05/16 11:24:44;;;;;;;1.00;0.60;;;17.80;99.90;;;;;;5071703;28;20462;-55
2021/05/16 11:27:27;;;;;;;2.50;0.70;;;17.70;99.90;;;;;;5071878;28;20451;-56
2021/05/16 11:29:55;;;;;;;1.23;0.60;;;17.80;99.90;;;;;;5072120;28;20434;-55
2021/05/16 11:32:28;;;;;;;1.53;0.57;;;17.80;99.90;;;;;;5070601;28;20478;-56
2021/05/16 11:35:16;;;;;;;1.83;0.60;;;17.60;99.90;;;;;;5071269;28;20455;-56
2021/05/16 11:37:45;;;;;;;1.40;0.80;;;17.70;99.90;;;;;;5067659;28;20478;-55
2021/05/16 11:40:22;;;;;;;3.60;0.70;;;17.80;99.90;;;;;;5071919;28;20512;-55
2021/05/16 11:42:57;;;;;;;0.90;0.70;;;17.90;99.90;;;;;;5071200;28;20447;-55
2021/05/16 11:45:28;;;;;;;1.53;0.90;;;17.70;99.50;;;;;;5071581;28;20446;-55
2021/05/16 11:47:54;;;;;;;1.63;0.80;;;17.60;99.90;;;;;;5071015;28;20887;-55
2021/05/16 11:50:36;;;;;;;2.40;1.10;;;17.70;99.90;;;;;;5071472;28;20446;-55
2021/05/16 11:53:03;;;;;;;1.63;0.90;;;17.80;99.90;;;;;;5070704;28;20508;-55
2021/05/16 11:55:30;;;;;;;1.77;0.73;;;17.90;99.90;;;;;;5071473;28;20447;-55
2021/05/16 11:57:57;;;;;;;1.43;0.70;;;17.70;99.40;;;;;;5071559;28;20470;-55
2021/05/16 12:00:29;;;;;;;0.80;0.60;;;17.80;99.90;;;;;;5071286;28;20462;-55
2021/05/16 12:03:14;;;;;;;1.40;0.83;;;17.70;99.90;;;;;;5071058;28;20439;-55
2021/05/16 12:05:42;;;;;;;0.70;0.70;;;17.50;99.90;;;;;;5070334;28;20454;-56
2021/05/16 12:08:22;;;;;;;1.50;0.73;;;17.20;99.90;;;;;;5070437;28;20466;-55
2021/05/16 12:11:08;;;;;;;1.70;0.90;;;16.90;99.90;;;;;;5071377;28;21069;-55
2021/05/16 12:13:35;;;;;;;1.10;0.70;;;16.40;99.90;;;;;;5071684;28;20443;-55
2021/05/16 12:16:15;;;;;;;0.70;0.50;;;15.70;99.90;;;;;;5069692;28;20467;-55
2021/05/16 12:18:42;;;;;;;1.80;0.60;;;15.30;99.90;;;;;;5070131;28;20463;-55
2021/05/16 12:21:09;;;;;;;1.67;0.60;;;15.00;99.90;;;;;;5071485;28;20447;-55
2021/05/16 12:23:36;;;;;;;1.13;0.60;;;15.00;99.90;;;;;;5071191;28;20473;-55
2021/05/16 12:26:03;;;;;;;1.37;0.60;;;14.80;99.90;;;;;;5073253;28;20451;-55
2021/05/16 12:28:31;;;;;;;2.20;0.60;;;14.80;99.90;;;;;;5070990;28;20470;-55
2021/05/16 12:30:59;;;;;;;1.48;0.75;;;15.00;99.90;;;;;;5067375;28;20450;-55
2021/05/16 12:33:26;;;;;;;1.03;0.50;;;15.00;99.90;;;;;;5070618;28;20572;-55
2021/05/16 12:35:53;;;;;;;1.13;0.60;;;15.10;99.90;;;;;;5074110;28;20546;-56
2021/05/16 12:38:20;;;;;;;1.50;0.63;;;15.10;99.90;;;;;;5074415;28;20462;-55
2021/05/16 12:40:47;;;;;;;1.97;1.00;;;15.00;99.90;;;;;;5074056;28;20474;-56
2021/05/16 12:43:18;;;;;;;1.10;0.80;;;15.00;99.90;;;;;;5073576;28;20443;-55
2021/05/16 12:45:45;;;;;;;1.70;0.83;;;15.10;99.90;;;;;;5067372;28;20457;-55
2021/05/16 12:48:18;;;;;;;2.70;0.80;;;15.30;99.90;;;;;;5070260;28;20463;-55
2021/05/16 12:50:48;;;;;;;0.93;0.80;;;15.60;99.90;;;;;;5063802;28;20479;-56
2021/05/16 12:53:23;;;;;;;0.80;0.80;;;16.10;99.90;;;;;;5073369;28;21030;-56
2021/05/16 12:55:50;;;;;;;1.67;0.90;;;16.70;99.90;;;;;;5074283;28;20450;-56
2021/05/16 12:58:19;;;;;;;1.40;0.90;;;17.10;99.90;;;;;;5073325;28;20463;-55